createdAt,value
2019-01-18T00:00:50.751Z,1.6
2019-01-18T00:03:51.157Z,1.6
2019-01-18T00:06:50.766Z,1.4
2019-01-18T00:09:50.467Z,1.4
2019-01-18T00:12:50.764Z,1.4
2019-01-18T00:15:50.930Z,1.3
2019-01-18T00:18:50.434Z,1.3
2019-01-18T00:21:50.997Z,1.7
2019-01-18T00:24:50.830Z,1.3
2019-01-18T00:27:50.498Z,1.4
2019-01-18T00:30:50.814Z,1.5
2019-01-18T00:33:50.793Z,1.3
2019-01-18T00:36:50.768Z,1.2
2019-01-18T00:39:50.796Z,1.6
2019-01-18T00:42:50.680Z,1.8
2019-01-18T00:45:50.791Z,1.5
2019-01-18T00:48:50.785Z,1.4
2019-01-18T00:51:51.114Z,1.3
2019-01-18T00:54:50.819Z,1.8
2019-01-18T00:57:50.522Z,1.4
2019-01-18T01:00:50.887Z,1.3
2019-01-18T01:03:51.113Z,1.3
2019-01-18T01:06:50.802Z,1.6
2019-01-18T01:09:52.076Z,1.3
2019-01-18T01:12:50.611Z,1.3
2019-01-18T01:15:50.601Z,1.3
2019-01-18T01:18:50.314Z,1.5
2019-01-18T01:21:51.197Z,1.3
2019-01-18T01:24:50.766Z,1.3
2019-01-18T01:27:50.756Z,1.3
2019-01-18T01:30:50.366Z,1.4
2019-01-18T01:33:50.417Z,2.2
2019-01-18T01:36:50.814Z,1.7
2019-01-18T01:39:50.870Z,1.3
2019-01-18T01:42:50.541Z,1.4
2019-01-18T01:45:50.778Z,1.7
2019-01-18T01:48:50.412Z,1.3
2019-01-18T01:51:50.374Z,1.4
2019-01-18T01:54:50.409Z,1.6
2019-01-18T01:57:50.269Z,1.4
2019-01-18T02:00:50.293Z,1.3
2019-01-18T02:03:51.254Z,1.4
2019-01-18T02:06:50.733Z,1.4
2019-01-18T02:09:50.545Z,1.4
2019-01-18T02:12:50.309Z,1.4
2019-01-18T02:15:50.379Z,1.3
2019-01-18T02:18:50.504Z,1.6
2019-01-18T02:21:50.442Z,1.6
2019-01-18T02:24:50.410Z,1.5
2019-01-18T02:27:50.376Z,1.3
2019-01-18T02:30:50.426Z,1.3
2019-01-18T02:33:50.820Z,1.5
2019-01-18T02:36:50.377Z,1.4
2019-01-18T02:39:50.516Z,1.5
2019-01-18T02:42:51.033Z,1.3
2019-01-18T02:45:50.863Z,1.6
2019-01-18T02:48:50.551Z,1.2
2019-01-18T02:51:50.647Z,1.5
2019-01-18T02:54:50.759Z,1.4
2019-01-18T02:57:50.608Z,1.4
2019-01-18T03:00:50.549Z,1.3
2019-01-18T03:03:51.139Z,3.2
2019-01-18T03:06:50.525Z,1.3
2019-01-18T03:09:50.682Z,1.5
2019-01-18T03:12:53.130Z,1.6
2019-01-18T03:15:50.402Z,1.5
2019-01-18T03:18:50.298Z,1.5
2019-01-18T03:21:50.436Z,1.3
2019-01-18T03:24:50.592Z,1.3
2019-01-18T03:27:50.404Z,1.8
2019-01-18T03:30:50.671Z,1.4
2019-01-18T03:33:50.657Z,1.5
2019-01-18T03:36:50.263Z,1.6
2019-01-18T03:39:50.675Z,1.4
2019-01-18T03:42:50.695Z,1.6
2019-01-18T03:45:50.688Z,1.6
2019-01-18T03:48:50.551Z,1.7
2019-01-18T03:51:50.626Z,1.4
2019-01-18T03:54:50.390Z,1.4
2019-01-18T03:57:50.431Z,1.6
2019-01-18T04:00:50.356Z,1.7
2019-01-18T04:03:50.441Z,1.3
2019-01-18T04:06:50.760Z,1.6
2019-01-18T04:09:50.580Z,1.5
2019-01-18T04:12:50.505Z,2.2
2019-01-18T04:15:50.265Z,1.3
2019-01-18T04:18:50.881Z,1.4
2019-01-18T04:21:50.856Z,1.7
2019-01-18T04:24:51.076Z,1.5
2019-01-18T04:27:50.516Z,1.6
2019-01-18T04:30:50.452Z,1.5
2019-01-18T04:33:51.004Z,1.7
2019-01-18T04:36:50.736Z,1.5
2019-01-18T04:39:50.855Z,1.4
2019-01-18T04:42:50.803Z,1.6
2019-01-18T04:45:50.939Z,1.4
2019-01-18T04:48:50.965Z,1.4
2019-01-18T04:51:50.503Z,1.6
2019-01-18T04:54:50.227Z,1.6
2019-01-18T04:57:51.270Z,1.7
2019-01-18T05:00:51.405Z,1.6
2019-01-18T05:03:52.396Z,1.4
2019-01-18T05:06:50.480Z,1.6
2019-01-18T05:09:51.426Z,1.3
2019-01-18T05:12:51.028Z,1.4
2019-01-18T05:15:51.176Z,1.4
2019-01-18T05:18:51.054Z,1.4
2019-01-18T05:21:50.508Z,1.6
2019-01-18T05:24:50.504Z,1.3
2019-01-18T05:27:50.215Z,1.3
2019-01-18T05:30:50.160Z,1.4
2019-01-18T05:33:51.403Z,1.4
2019-01-18T05:36:50.926Z,1.3
2019-01-18T05:39:50.466Z,1.4
2019-01-18T05:42:50.751Z,1.3
2019-01-18T05:45:50.506Z,1.8
2019-01-18T05:48:50.602Z,1.4
2019-01-18T05:51:50.437Z,1.3
2019-01-18T05:54:50.466Z,1.3
2019-01-18T05:57:50.389Z,1.4
2019-01-18T06:00:56.595Z,1.4
2019-01-18T06:03:50.944Z,1.4
2019-01-18T06:06:50.641Z,1.4
2019-01-18T06:09:50.179Z,1.3
2019-01-18T06:12:50.369Z,1.4
2019-01-18T06:15:50.833Z,1.4
2019-01-18T06:18:50.703Z,1.4
2019-01-18T06:21:50.284Z,1.4
2019-01-18T06:24:50.345Z,1.3
2019-01-18T06:27:50.807Z,1.4
2019-01-18T06:30:50.411Z,1.7
2019-01-18T06:33:50.210Z,1.6
2019-01-18T06:36:50.573Z,1.6
2019-01-18T06:39:50.495Z,1.5
2019-01-18T06:42:50.525Z,1.7
2019-01-18T06:45:50.742Z,1.5
2019-01-18T06:48:51.033Z,1.5
2019-01-18T06:51:50.677Z,3.5
2019-01-18T06:54:50.339Z,6.5
2019-01-18T06:57:50.542Z,6.3
2019-01-18T07:00:51.159Z,4.2
2019-01-18T07:03:50.397Z,3.9
2019-01-18T07:06:50.312Z,2.5
2019-01-18T07:09:50.602Z,3.9
2019-01-18T07:12:50.342Z,4.2
2019-01-18T07:15:50.460Z,5.5
2019-01-18T07:18:50.338Z,3.9
2019-01-18T07:21:50.770Z,3.5
2019-01-18T07:24:50.317Z,2.7
2019-01-18T07:27:50.429Z,4.4
2019-01-18T07:30:50.164Z,5.8
2019-01-18T07:33:50.572Z,2.7
2019-01-18T07:36:50.469Z,2.9
2019-01-18T07:39:50.414Z,2.2
2019-01-18T07:42:50.647Z,3.3
2019-01-18T07:45:50.357Z,4.2
2019-01-18T07:48:51.146Z,3
2019-01-18T07:51:50.578Z,2
2019-01-18T07:54:50.198Z,3.2
2019-01-18T07:57:50.379Z,3.3
2019-01-18T08:00:50.591Z,5.4
2019-01-18T08:03:50.757Z,4.9
2019-01-18T08:06:50.406Z,2.7
2019-01-18T08:09:50.382Z,3.5
2019-01-18T08:12:51.588Z,3.2
2019-01-18T08:15:50.160Z,3.3
2019-01-18T08:18:50.439Z,3.5
2019-01-18T08:21:50.492Z,3.4
2019-01-18T08:24:50.999Z,5.5
2019-01-18T08:27:51.358Z,3.2
2019-01-18T08:30:50.508Z,2.9
2019-01-18T08:33:50.469Z,3.8
2019-01-18T08:36:50.492Z,3.3
2019-01-18T08:39:52.365Z,3.2
2019-01-18T08:42:51.360Z,3.7
2019-01-18T08:45:50.866Z,5.1
2019-01-18T08:48:50.299Z,3.1
2019-01-18T08:51:50.889Z,3.2
2019-01-18T08:54:50.431Z,2.9
2019-01-18T08:57:50.114Z,3.3
2019-01-18T09:00:52.120Z,3.3
2019-01-18T09:03:51.078Z,4.1
2019-01-18T09:06:50.390Z,2.7
2019-01-18T09:14:50.797Z,2.7
2019-01-18T09:17:50.836Z,2
2019-01-18T09:20:50.667Z,2.4
2019-01-18T09:23:50.455Z,3.5
2019-01-18T09:26:50.874Z,2.6
2019-01-18T09:29:50.804Z,2.3
2019-01-18T09:32:50.997Z,3.8
2019-01-18T09:35:50.506Z,2.2
2019-01-18T09:38:51.284Z,2.7
2019-01-18T09:41:51.931Z,3.1
2019-01-18T09:44:50.585Z,3.2
2019-01-18T09:47:50.740Z,2.5
2019-01-18T09:50:50.954Z,3.7
2019-01-18T09:53:50.499Z,2
2019-01-18T09:56:50.554Z,2.6
2019-01-18T09:59:50.844Z,3
2019-01-18T10:02:50.403Z,1.9
2019-01-18T10:05:50.482Z,4.2
2019-01-18T10:08:50.403Z,2.2
2019-01-18T10:11:50.538Z,3.3
2019-01-18T10:14:50.616Z,2.5
2019-01-18T10:17:51.044Z,3
2019-01-18T10:20:50.638Z,2.2
2019-01-18T10:23:50.800Z,2.8
2019-01-18T10:26:50.590Z,2.3
2019-01-18T10:29:50.485Z,2.4
2019-01-18T10:32:50.442Z,3.5
2019-01-18T10:35:50.678Z,3.1
2019-01-18T10:38:50.562Z,1.9
2019-01-18T10:41:51.044Z,2.8
2019-01-18T10:44:50.669Z,3.1
2019-01-18T10:47:50.625Z,2
2019-01-18T10:50:50.924Z,4.2
2019-01-18T10:53:50.575Z,4.5
2019-01-18T10:56:50.609Z,2.9
2019-01-18T10:59:50.866Z,3.4
2019-01-18T11:02:50.818Z,1.9
2019-01-18T11:05:51.103Z,3
2019-01-18T11:08:50.981Z,2.4
2019-01-18T11:11:50.768Z,2.6
2019-01-18T11:14:50.618Z,2.6
2019-01-18T11:17:50.426Z,2
2019-01-18T11:20:51.472Z,2.8
2019-01-18T11:23:50.730Z,2
2019-01-18T11:26:50.521Z,2.4
2019-01-18T11:29:50.783Z,2.7
2019-01-18T11:32:50.781Z,2.5
2019-01-18T11:35:50.399Z,3
2019-01-18T11:38:50.838Z,1.9
2019-01-18T11:41:50.799Z,1.6
2019-01-18T11:44:50.674Z,2.7
2019-01-18T11:47:50.826Z,2.7
2019-01-18T11:50:50.609Z,2.2
2019-01-18T11:53:50.844Z,5.6
2019-01-18T11:56:50.842Z,4.1
2019-01-18T11:59:52.463Z,4.1
2019-01-18T12:02:50.451Z,5.2
2019-01-18T12:05:51.034Z,2.8
2019-01-18T12:08:50.708Z,4.5
2019-01-18T12:11:53.489Z,4.8
2019-01-18T12:14:50.801Z,4.4
2019-01-18T12:17:50.459Z,2.6
2019-01-18T12:20:50.357Z,4.1
2019-01-18T12:23:50.755Z,3.5
2019-01-18T12:26:50.779Z,6.3
2019-01-18T12:29:50.702Z,4.4
2019-01-18T12:32:50.733Z,3.3
2019-01-18T12:35:50.535Z,4
2019-01-18T12:38:50.540Z,5.1
2019-01-18T12:41:50.536Z,5.2
2019-01-18T12:44:50.780Z,4.5
2019-01-18T12:51:00.485Z,6.3
2019-01-18T12:54:00.442Z,4.7
2019-01-18T12:57:00.352Z,3.8
2019-01-18T13:00:00.572Z,3.8
2019-01-18T13:03:01.416Z,4.6
2019-01-18T13:06:00.050Z,4.1
2019-01-18T13:09:00.142Z,2.7
2019-01-18T13:12:00.780Z,5.5
2019-01-18T13:15:00.030Z,2.5
2019-01-18T13:18:00.399Z,2.5
2019-01-18T13:21:00.289Z,2.6
2019-01-18T13:24:00.275Z,3.7
2019-01-18T13:27:00.441Z,3.1
2019-01-18T13:30:00.475Z,2.4
2019-01-18T13:33:00.389Z,2.2
2019-01-18T13:36:01.925Z,2.1
2019-01-18T13:39:00.605Z,4.3
2019-01-18T13:42:00.335Z,2.5
2019-01-18T13:45:00.426Z,2.8
2019-01-18T13:48:00.523Z,2.1
2019-01-18T13:51:00.145Z,2.8
2019-01-18T13:54:00.164Z,2.5
2019-01-18T13:57:00.354Z,3.3
2019-01-18T14:00:00.503Z,2.8
2019-01-18T14:03:00.773Z,1.7
2019-01-18T14:06:00.282Z,3.6
2019-01-18T14:09:00.242Z,2.8
2019-01-18T14:12:00.278Z,1.6
2019-01-18T14:15:00.400Z,2.9
2019-01-18T14:18:00.495Z,2
2019-01-18T14:21:00.295Z,1.9
2019-01-18T14:24:00.190Z,7.1
2019-01-18T14:27:00.534Z,4
2019-01-18T14:30:00.060Z,2.4
2019-01-18T14:33:00.166Z,3.5
2019-01-18T14:36:00.157Z,2.1
2019-01-18T14:38:59.997Z,6.6
2019-01-18T14:42:00.050Z,2.9
2019-01-18T14:45:01.969Z,5.4
2019-01-18T14:48:00.759Z,3.9
2019-01-18T14:51:00.278Z,2.5
2019-01-18T14:54:00.295Z,2.7
2019-01-18T14:57:01.445Z,2.6
2019-01-18T15:00:00.459Z,3.1
2019-01-18T15:03:04.942Z,2.6
2019-01-18T15:06:00.076Z,2
2019-01-18T15:09:00.134Z,1.8
2019-01-18T15:12:01.950Z,2.8
2019-01-18T15:15:00.559Z,2.3
2019-01-18T15:20:19.693Z,3
2019-01-18T15:23:21.129Z,5
2019-01-18T15:28:22.389Z,2.3
2019-01-18T15:31:22.213Z,2.1
2019-01-18T15:34:22.748Z,2.6
2019-01-18T15:37:22.500Z,2.5
2019-01-18T15:42:54.955Z,2
2019-01-18T15:45:55.038Z,1.8
2019-01-18T15:48:54.816Z,3.3
2019-01-18T15:51:55.926Z,1.5
2019-01-18T15:54:56.392Z,2
2019-01-18T15:57:54.936Z,2.1
2019-01-18T16:00:54.964Z,3.4
2019-01-18T16:03:55.079Z,3.1
2019-01-18T16:06:54.724Z,3.1
2019-01-18T16:09:54.708Z,3.2
2019-01-18T16:12:55.069Z,2.7
2019-01-18T16:15:54.917Z,5.2
2019-01-18T16:18:54.858Z,3.6
2019-01-18T16:21:54.908Z,3.4
2019-01-18T16:24:55.806Z,3.6
2019-01-18T16:27:54.827Z,2.3
2019-01-18T16:30:55.242Z,2
2019-01-18T16:33:55.086Z,2.4
2019-01-18T16:36:55.152Z,2.9
2019-01-18T16:39:55.044Z,2.4
2019-01-18T16:42:54.751Z,4.3
2019-01-18T16:45:54.778Z,2.8
2019-01-18T16:50:52.085Z,3.5
2019-01-18T16:53:52.450Z,2.4
2019-01-18T16:56:52.114Z,3.4
2019-01-18T17:02:08.310Z,2.6
2019-01-18T17:05:08.813Z,2.8
2019-01-18T17:08:07.840Z,3.4
2019-01-18T17:11:07.918Z,3
2019-01-18T17:14:07.710Z,2.7
2019-01-18T17:17:08.057Z,2.5
2019-01-18T17:20:07.676Z,2.9
2019-01-18T17:23:07.961Z,3.5
2019-01-18T17:26:08.158Z,4
2019-01-18T17:29:07.738Z,3.9
2019-01-18T17:34:14.184Z,3.5
2019-01-18T17:37:13.596Z,4.2
2019-01-18T17:40:13.296Z,3.5
2019-01-18T17:43:13.197Z,3.6
2019-01-18T17:46:14.059Z,3.7
2019-01-18T17:49:13.873Z,3.1
2019-01-18T17:52:13.873Z,3.9
2019-01-18T17:55:13.806Z,3.5
2019-01-18T17:59:54.357Z,3.5
2019-01-18T18:02:54.160Z,3.9
2019-01-18T18:05:54.124Z,4.7
2019-01-18T18:12:18.557Z,4.6
2019-01-18T18:15:19.628Z,4
2019-01-18T18:18:18.642Z,4.3
2019-01-18T18:21:18.890Z,4.7
2019-01-18T18:24:18.882Z,3.9
2019-01-18T18:27:18.486Z,5.5
2019-01-18T18:30:18.778Z,4.9
2019-01-18T18:33:18.819Z,3.8
2019-01-18T18:36:18.645Z,4.4
2019-01-18T18:39:18.762Z,4.9
2019-01-18T18:42:18.323Z,4
2019-01-18T18:45:18.331Z,4.8
2019-01-18T18:48:18.900Z,5.3
2019-01-18T18:51:18.298Z,4.5
2019-01-18T18:54:18.530Z,4.2
2019-01-18T18:57:18.745Z,4.4
2019-01-18T19:00:18.458Z,4.1
2019-01-18T19:03:18.805Z,3.8
2019-01-18T19:06:18.821Z,4
2019-01-18T19:09:18.749Z,3.9
2019-01-18T19:12:18.494Z,4.3
2019-01-18T19:15:19.315Z,5.4
2019-01-18T19:18:19.112Z,4.5
2019-01-18T19:21:18.377Z,4.6
2019-01-18T19:24:18.826Z,6
2019-01-18T19:27:18.497Z,6.3
2019-01-18T19:30:18.538Z,4.4
2019-01-18T19:33:18.532Z,4.3
2019-01-18T19:36:18.391Z,5.2
2019-01-18T19:39:18.967Z,5.9
2019-01-18T19:42:20.214Z,5.4
2019-01-18T19:45:18.551Z,4.7
2019-01-18T19:48:21.198Z,4.9
2019-01-18T19:51:18.316Z,4.9
2019-01-18T19:54:18.548Z,5.1
2019-01-18T19:57:19.020Z,4.5
2019-01-18T20:00:19.851Z,4.6
2019-01-18T20:03:18.479Z,6
2019-01-18T20:06:18.519Z,5
2019-01-18T20:09:18.919Z,5
2019-01-18T20:12:18.804Z,4.4
2019-01-18T20:15:18.585Z,4.4
2019-01-18T20:18:18.694Z,5.3
2019-01-18T20:21:18.306Z,5.3
2019-01-18T20:24:19.102Z,5
2019-01-18T20:27:20.357Z,5.2
2019-01-18T20:30:18.409Z,5.7
2019-01-18T20:33:18.551Z,5
2019-01-18T20:36:18.430Z,4.5
2019-01-18T20:39:18.289Z,5.4
2019-01-18T20:42:18.784Z,5
2019-01-18T20:45:18.830Z,4.5
2019-01-18T20:51:58.223Z,5.2
2019-01-18T20:54:57.886Z,4.4
2019-01-18T20:57:57.890Z,4.5
2019-01-18T21:00:58.482Z,5.3
2019-01-18T21:03:57.843Z,6.1
2019-01-18T21:06:58.050Z,5.5
2019-01-18T21:09:57.866Z,4.6
2019-01-18T21:12:58.293Z,4.8
2019-01-18T21:15:58.007Z,4.6
2019-01-18T21:18:59.698Z,4.8
2019-01-18T21:21:57.911Z,4.5
2019-01-18T21:24:58.120Z,4.4
2019-01-18T21:27:58.077Z,4.3
2019-01-18T21:30:59.668Z,4.7
2019-01-18T21:33:57.945Z,5.6
2019-01-18T21:36:57.698Z,5.6
2019-01-18T21:39:57.757Z,4.1
2019-01-18T21:42:57.954Z,4.5
2019-01-18T21:45:58.124Z,4.5
2019-01-18T21:48:58.503Z,4.4
2019-01-18T21:51:57.857Z,4.7
2019-01-18T21:54:57.880Z,4.2
2019-01-18T21:57:58.061Z,4.2
2019-01-18T22:00:57.934Z,4.7
2019-01-18T22:03:58.238Z,4.2
2019-01-18T22:06:58.098Z,4.1
2019-01-18T22:09:58.013Z,4.1
2019-01-18T22:12:58.050Z,4.5
2019-01-18T22:15:58.023Z,4
2019-01-18T22:18:57.740Z,4.2
2019-01-18T22:21:57.691Z,4.2
2019-01-18T22:24:57.705Z,4.1
2019-01-18T22:27:57.891Z,4.3
2019-01-18T22:30:58.004Z,4.5
2019-01-18T22:33:57.785Z,4.2
2019-01-18T22:36:57.866Z,3.8
2019-01-18T22:39:58.074Z,4
2019-01-18T22:42:58.115Z,4.1
2019-01-18T22:45:57.852Z,3.8
2019-01-18T22:48:57.840Z,5.3
2019-01-18T22:51:58.279Z,3.6
2019-01-18T22:54:58.020Z,3.8
2019-01-18T22:57:58.198Z,3.8
2019-01-18T23:00:57.757Z,3.6
2019-01-18T23:03:57.778Z,3.7
2019-01-18T23:06:57.868Z,4.2
2019-01-18T23:09:57.930Z,3.8
2019-01-18T23:12:57.747Z,3.7
2019-01-18T23:15:58.011Z,3.6
2019-01-18T23:18:58.534Z,3.7
2019-01-18T23:21:58.521Z,4
2019-01-18T23:24:57.722Z,3.9
2019-01-18T23:27:58.042Z,3.7
2019-01-18T23:30:57.646Z,3.8
2019-01-18T23:33:57.719Z,4
2019-01-18T23:36:57.614Z,4
2019-01-18T23:39:57.543Z,3.9
2019-01-18T23:42:58.101Z,4
2019-01-18T23:45:57.739Z,3.8
2019-01-18T23:48:57.849Z,3.8
2019-01-18T23:51:57.919Z,3.8
2019-01-18T23:54:58.364Z,3.7
2019-01-18T23:57:57.955Z,3.4
